sensor_id;sensor_type;location;lat;lon;timestamp;temperature;humidity
47418;DHT22;61796;48.808;8.194;2022-07-11T00:00:40;23.60;67.40
47418;DHT22;61796;48.808;8.194;2022-07-11T00:02:22;23.60;68.00
47418;DHT22;61796;48.808;8.194;2022-07-11T00:04:04;23.60;68.10
47418;DHT22;61796;48.808;8.194;2022-07-11T00:05:46;23.60;68.10
47418;DHT22;61796;48.808;8.194;2022-07-11T00:07:28;23.50;68.10
47418;DHT22;61796;48.808;8.194;2022-07-11T00:09:10;23.60;68.20
47418;DHT22;61796;48.808;8.194;2022-07-11T00:10:52;23.60;67.70
47418;DHT22;61796;48.808;8.194;2022-07-11T00:12:34;23.60;68.30
47418;DHT22;61796;48.808;8.194;2022-07-11T00:14:17;23.60;68.40
47418;DHT22;61796;48.808;8.194;2022-07-11T00:15:59;23.60;68.40
47418;DHT22;61796;48.808;8.194;2022-07-11T00:17:41;23.60;68.40
47418;DHT22;61796;48.808;8.194;2022-07-11T00:19:23;23.60;68.50
47418;DHT22;61796;48.808;8.194;2022-07-11T00:21:05;23.60;68.00
47418;DHT22;61796;48.808;8.194;2022-07-11T00:22:46;23.60;68.60
47418;DHT22;61796;48.808;8.194;2022-07-11T00:24:28;23.60;68.60
47418;DHT22;61796;48.808;8.194;2022-07-11T00:26:10;23.60;68.70
47418;DHT22;61796;48.808;8.194;2022-07-11T00:27:51;23.50;68.60
47418;DHT22;61796;48.808;8.194;2022-07-11T00:29:35;23.50;68.60
47418;DHT22;61796;48.808;8.194;2022-07-11T00:31:16;23.60;68.20
47418;DHT22;61796;48.808;8.194;2022-07-11T00:32:58;23.50;68.80
47418;DHT22;61796;48.808;8.194;2022-07-11T00:34:40;23.60;68.80
47418;DHT22;61796;48.808;8.194;2022-07-11T00:36:22;23.50;68.80
47418;DHT22;61796;48.808;8.194;2022-07-11T00:38:03;23.50;68.90
47418;DHT22;61796;48.808;8.194;2022-07-11T00:39:45;23.60;68.40
47418;DHT22;61796;48.808;8.194;2022-07-11T00:41:27;23.50;68.90
47418;DHT22;61796;48.808;8.194;2022-07-11T00:43:09;23.60;68.90
47418;DHT22;61796;48.808;8.194;2022-07-11T00:44:52;23.60;68.90
47418;DHT22;61796;48.808;8.194;2022-07-11T00:46:33;23.60;68.90
47418;DHT22;61796;48.808;8.194;2022-07-11T00:48:15;23.60;68.90
47418;DHT22;61796;48.808;8.194;2022-07-11T00:49:57;23.60;68.40
47418;DHT22;61796;48.808;8.194;2022-07-11T00:51:39;23.50;68.90
47418;DHT22;61796;48.808;8.194;2022-07-11T00:53:21;23.60;69.00
47418;DHT22;61796;48.808;8.194;2022-07-11T00:55:05;23.60;69.00
47418;DHT22;61796;48.808;8.194;2022-07-11T00:56:47;23.60;69.10
47418;DHT22;61796;48.808;8.194;2022-07-11T00:58:30;23.60;69.10
47418;DHT22;61796;48.808;8.194;2022-07-11T01:00:13;23.60;68.60
47418;DHT22;61796;48.808;8.194;2022-07-11T01:01:55;23.50;69.00
47418;DHT22;61796;48.808;8.194;2022-07-11T01:03:37;23.60;69.10
47418;DHT22;61796;48.808;8.194;2022-07-11T01:05:19;23.60;69.10
47418;DHT22;61796;48.808;8.194;2022-07-11T01:07:01;23.50;69.20
47418;DHT22;61796;48.808;8.194;2022-07-11T01:08:43;23.50;69.10
47418;DHT22;61796;48.808;8.194;2022-07-11T01:10:25;23.50;68.70
47418;DHT22;61796;48.808;8.194;2022-07-11T01:12:08;23.60;69.30
47418;DHT22;61796;48.808;8.194;2022-07-11T01:13:49;23.60;69.30
47418;DHT22;61796;48.808;8.194;2022-07-11T01:15:35;23.50;69.30
47418;DHT22;61796;48.808;8.194;2022-07-11T01:17:17;23.50;69.40
47418;DHT22;61796;48.808;8.194;2022-07-11T01:18:59;23.50;69.40
47418;DHT22;61796;48.808;8.194;2022-07-11T01:20:41;23.50;68.90
47418;DHT22;61796;48.808;8.194;2022-07-11T01:22:24;23.50;69.50
47418;DHT22;61796;48.808;8.194;2022-07-11T01:24:10;23.50;69.50
47418;DHT22;61796;48.808;8.194;2022-07-11T01:25:52;23.50;69.50
47418;DHT22;61796;48.808;8.194;2022-07-11T01:27:34;23.50;69.50
47418;DHT22;61796;48.808;8.194;2022-07-11T01:29:16;23.50;69.60
47418;DHT22;61796;48.808;8.194;2022-07-11T01:30:58;23.50;69.00
47418;DHT22;61796;48.808;8.194;2022-07-11T01:32:40;23.50;69.60
47418;DHT22;61796;48.808;8.194;2022-07-11T01:34:22;23.50;69.60
47418;DHT22;61796;48.808;8.194;2022-07-11T01:36:04;23.50;69.60
47418;DHT22;61796;48.808;8.194;2022-07-11T01:37:46;23.50;69.60
47418;DHT22;61796;48.808;8.194;2022-07-11T01:39:29;23.50;69.60
47418;DHT22;61796;48.808;8.194;2022-07-11T01:41:11;23.50;69.10
47418;DHT22;61796;48.808;8.194;2022-07-11T01:42:53;23.50;69.70
47418;DHT22;61796;48.808;8.194;2022-07-11T01:44:35;23.50;69.70
47418;DHT22;61796;48.808;8.194;2022-07-11T01:46:16;23.50;69.70
47418;DHT22;61796;48.808;8.194;2022-07-11T01:47:58;23.50;69.70
47418;DHT22;61796;48.808;8.194;2022-07-11T01:49:40;23.50;69.70
47418;DHT22;61796;48.808;8.194;2022-07-11T01:51:23;23.50;69.20
47418;DHT22;61796;48.808;8.194;2022-07-11T01:53:05;23.50;69.80
47418;DHT22;61796;48.808;8.194;2022-07-11T01:54:48;23.50;69.70
47418;DHT22;61796;48.808;8.194;2022-07-11T01:56:30;23.50;69.70
47418;DHT22;61796;48.808;8.194;2022-07-11T01:58:13;23.50;69.60
47418;DHT22;61796;48.808;8.194;2022-07-11T01:59:55;23.50;69.00
47418;DHT22;61796;48.808;8.194;2022-07-11T02:01:37;23.50;69.60
47418;DHT22;61796;48.808;8.194;2022-07-11T02:03:19;23.50;69.60
47418;DHT22;61796;48.808;8.194;2022-07-11T02:05:01;23.50;69.60
47418;DHT22;61796;48.808;8.194;2022-07-11T02:06:42;23.50;69.60
47418;DHT22;61796;48.808;8.194;2022-07-11T02:08:24;23.50;69.60
47418;DHT22;61796;48.808;8.194;2022-07-11T02:10:09;23.50;69.10
47418;DHT22;61796;48.808;8.194;2022-07-11T02:11:50;23.50;69.70
47418;DHT22;61796;48.808;8.194;2022-07-11T02:13:32;23.50;69.60
47418;DHT22;61796;48.808;8.194;2022-07-11T02:15:14;23.50;69.70
47418;DHT22;61796;48.808;8.194;2022-07-11T02:16:56;23.50;69.70
47418;DHT22;61796;48.808;8.194;2022-07-11T02:18:37;23.50;69.80
47418;DHT22;61796;48.808;8.194;2022-07-11T02:20:19;23.50;69.20
47418;DHT22;61796;48.808;8.194;2022-07-11T02:22:01;23.50;69.80
47418;DHT22;61796;48.808;8.194;2022-07-11T02:23:43;23.50;69.80
47418;DHT22;61796;48.808;8.194;2022-07-11T02:25:27;23.50;69.90
47418;DHT22;61796;48.808;8.194;2022-07-11T02:27:09;23.50;69.90
47418;DHT22;61796;48.808;8.194;2022-07-11T02:28:51;23.50;70.00
47418;DHT22;61796;48.808;8.194;2022-07-11T02:30:33;23.50;69.40
47418;DHT22;61796;48.808;8.194;2022-07-11T02:32:15;23.50;69.90
47418;DHT22;61796;48.808;8.194;2022-07-11T02:33:56;23.50;70.00
47418;DHT22;61796;48.808;8.194;2022-07-11T02:35:38;23.50;70.00
47418;DHT22;61796;48.808;8.194;2022-07-11T02:37:20;23.50;70.00
47418;DHT22;61796;48.808;8.194;2022-07-11T02:39:02;23.50;70.00
47418;DHT22;61796;48.808;8.194;2022-07-11T02:40:45;23.50;69.50
47418;DHT22;61796;48.808;8.194;2022-07-11T02:42:27;23.50;70.10
47418;DHT22;61796;48.808;8.194;2022-07-11T02:44:08;23.50;70.00
47418;DHT22;61796;48.808;8.194;2022-07-11T02:45:50;23.50;70.10
47418;DHT22;61796;48.808;8.194;2022-07-11T02:47:32;23.50;70.10
47418;DHT22;61796;48.808;8.194;2022-07-11T02:49:14;23.50;70.20
47418;DHT22;61796;48.808;8.194;2022-07-11T02:50:56;23.50;69.60
47418;DHT22;61796;48.808;8.194;2022-07-11T02:52:38;23.50;70.20
47418;DHT22;61796;48.808;8.194;2022-07-11T02:54:20;23.50;70.20
47418;DHT22;61796;48.808;8.194;2022-07-11T02:56:04;23.50;70.30
47418;DHT22;61796;48.808;8.194;2022-07-11T02:57:46;23.50;70.40
47418;DHT22;61796;48.808;8.194;2022-07-11T02:59:28;23.50;70.40
47418;DHT22;61796;48.808;8.194;2022-07-11T03:01:09;23.50;69.90
47418;DHT22;61796;48.808;8.194;2022-07-11T03:02:51;23.50;70.50
47418;DHT22;61796;48.808;8.194;2022-07-11T03:04:33;23.50;70.50
47418;DHT22;61796;48.808;8.194;2022-07-11T03:06:15;23.50;70.50
47418;DHT22;61796;48.808;8.194;2022-07-11T03:07:57;23.50;70.50
47418;DHT22;61796;48.808;8.194;2022-07-11T03:09:38;23.50;70.60
47418;DHT22;61796;48.808;8.194;2022-07-11T03:11:22;23.50;70.10
47418;DHT22;61796;48.808;8.194;2022-07-11T03:13:04;23.50;70.60
47418;DHT22;61796;48.808;8.194;2022-07-11T03:14:46;23.50;70.60
47418;DHT22;61796;48.808;8.194;2022-07-11T03:16:28;23.70;70.80
47418;DHT22;61796;48.808;8.194;2022-07-11T03:18:10;23.50;70.80
47418;DHT22;61796;48.808;8.194;2022-07-11T03:19:52;23.40;70.30
47418;DHT22;61796;48.808;8.194;2022-07-11T03:21:34;23.50;70.90
47418;DHT22;61796;48.808;8.194;2022-07-11T03:23:15;23.50;70.90
47418;DHT22;61796;48.808;8.194;2022-07-11T03:24:57;23.40;70.90
47418;DHT22;61796;48.808;8.194;2022-07-11T03:26:40;23.50;70.90
47418;DHT22;61796;48.808;8.194;2022-07-11T03:28:22;23.40;70.90
47418;DHT22;61796;48.808;8.194;2022-07-11T03:30:05;23.50;70.40
47418;DHT22;61796;48.808;8.194;2022-07-11T03:31:47;23.50;70.90
47418;DHT22;61796;48.808;8.194;2022-07-11T03:33:28;23.50;70.90
47418;DHT22;61796;48.808;8.194;2022-07-11T03:35:10;23.50;70.90
47418;DHT22;61796;48.808;8.194;2022-07-11T03:36:52;23.50;70.90
47418;DHT22;61796;48.808;8.194;2022-07-11T03:38:34;23.40;70.90
47418;DHT22;61796;48.808;8.194;2022-07-11T03:40:16;23.40;70.40
47418;DHT22;61796;48.808;8.194;2022-07-11T03:41:59;23.50;71.00
47418;DHT22;61796;48.808;8.194;2022-07-11T03:43:40;23.40;70.90
47418;DHT22;61796;48.808;8.194;2022-07-11T03:45:23;23.40;70.90
47418;DHT22;61796;48.808;8.194;2022-07-11T03:47:05;23.50;70.90
47418;DHT22;61796;48.808;8.194;2022-07-11T03:48:47;23.50;71.00
47418;DHT22;61796;48.808;8.194;2022-07-11T03:50:29;23.50;70.40
47418;DHT22;61796;48.808;8.194;2022-07-11T03:52:10;23.40;71.00
47418;DHT22;61796;48.808;8.194;2022-07-11T03:53:52;23.40;70.90
47418;DHT22;61796;48.808;8.194;2022-07-11T03:55:34;23.40;70.90
47418;DHT22;61796;48.808;8.194;2022-07-11T03:57:17;23.40;71.00
47418;DHT22;61796;48.808;8.194;2022-07-11T03:58:59;23.40;70.90
47418;DHT22;61796;48.808;8.194;2022-07-11T04:00:42;22.50;69.90
47418;DHT22;61796;48.808;8.194;2022-07-11T04:02:24;23.40;70.90
47418;DHT22;61796;48.808;8.194;2022-07-11T04:04:06;23.40;71.00
47418;DHT22;61796;48.808;8.194;2022-07-11T04:05:47;23.40;71.10
47418;DHT22;61796;48.808;8.194;2022-07-11T04:07:29;23.40;71.20
47418;DHT22;61796;48.808;8.194;2022-07-11T04:09:11;23.40;71.10
47418;DHT22;61796;48.808;8.194;2022-07-11T04:10:53;23.40;70.60
47418;DHT22;61796;48.808;8.194;2022-07-11T04:12:36;23.40;71.20
47418;DHT22;61796;48.808;8.194;2022-07-11T04:14:18;23.40;71.40
47418;DHT22;61796;48.808;8.194;2022-07-11T04:16:00;23.40;71.40
47418;DHT22;61796;48.808;8.194;2022-07-11T04:17:42;23.40;71.40
47418;DHT22;61796;48.808;8.194;2022-07-11T04:19:23;23.40;71.40
47418;DHT22;61796;48.808;8.194;2022-07-11T04:21:05;23.40;70.80
47418;DHT22;61796;48.808;8.194;2022-07-11T04:22:50;23.40;71.40
47418;DHT22;61796;48.808;8.194;2022-07-11T04:24:31;23.40;71.30
47418;DHT22;61796;48.808;8.194;2022-07-11T04:26:13;23.40;72.00
47418;DHT22;61796;48.808;8.194;2022-07-11T04:27:56;23.40;71.30
47418;DHT22;61796;48.808;8.194;2022-07-11T04:29:38;23.40;71.30
47418;DHT22;61796;48.808;8.194;2022-07-11T04:31:20;23.40;70.80
47418;DHT22;61796;48.808;8.194;2022-07-11T04:33:02;23.40;71.30
47418;DHT22;61796;48.808;8.194;2022-07-11T04:34:51;23.40;71.40
47418;DHT22;61796;48.808;8.194;2022-07-11T04:36:33;23.40;71.30
47418;DHT22;61796;48.808;8.194;2022-07-11T04:38:14;23.40;71.30
47418;DHT22;61796;48.808;8.194;2022-07-11T04:39:56;23.00;71.10
47418;DHT22;61796;48.808;8.194;2022-07-11T04:41:38;23.40;68.90
47418;DHT22;61796;48.808;8.194;2022-07-11T04:43:21;23.40;69.40
47418;DHT22;61796;48.808;8.194;2022-07-11T04:45:04;23.40;66.70
47418;DHT22;61796;48.808;8.194;2022-07-11T04:46:46;23.40;65.30
47418;DHT22;61796;48.808;8.194;2022-07-11T04:48:27;23.40;65.20
47418;DHT22;61796;48.808;8.194;2022-07-11T04:51:51;23.30;61.20
47418;DHT22;61796;48.808;8.194;2022-07-11T04:53:34;23.30;59.90
47418;DHT22;61796;48.808;8.194;2022-07-11T04:55:15;23.30;59.00
47418;DHT22;61796;48.808;8.194;2022-07-11T04:56:57;23.30;58.80
47418;DHT22;61796;48.808;8.194;2022-07-11T04:58:40;23.30;58.40
47418;DHT22;61796;48.808;8.194;2022-07-11T05:00:22;23.20;57.70
47418;DHT22;61796;48.808;8.194;2022-07-11T05:02:04;23.20;58.10
47418;DHT22;61796;48.808;8.194;2022-07-11T05:03:46;23.20;57.90
47418;DHT22;61796;48.808;8.194;2022-07-11T05:05:28;23.20;57.80
47418;DHT22;61796;48.808;8.194;2022-07-11T05:07:10;23.10;57.20
47418;DHT22;61796;48.808;8.194;2022-07-11T05:08:52;23.20;57.70
47418;DHT22;61796;48.808;8.194;2022-07-11T05:10:33;23.10;58.60
47418;DHT22;61796;48.808;8.194;2022-07-11T05:12:15;23.10;59.20
47418;DHT22;61796;48.808;8.194;2022-07-11T05:13:59;23.10;59.60
47418;DHT22;61796;48.808;8.194;2022-07-11T05:15:40;23.10;59.90
47418;DHT22;61796;48.808;8.194;2022-07-11T05:17:22;23.10;60.30
47418;DHT22;61796;48.808;8.194;2022-07-11T05:19:04;23.10;60.70
47418;DHT22;61796;48.808;8.194;2022-07-11T05:20:46;23.10;60.60
47418;DHT22;61796;48.808;8.194;2022-07-11T05:22:28;23.10;61.30
47418;DHT22;61796;48.808;8.194;2022-07-11T05:24:09;23.10;61.60
47418;DHT22;61796;48.808;8.194;2022-07-11T05:25:51;23.10;61.90
47418;DHT22;61796;48.808;8.194;2022-07-11T05:27:33;23.10;62.00
47418;DHT22;61796;48.808;8.194;2022-07-11T05:29:16;23.10;62.30
47418;DHT22;61796;48.808;8.194;2022-07-11T05:30:58;23.10;62.00
47418;DHT22;61796;48.808;8.194;2022-07-11T05:34:22;23.00;62.30
47418;DHT22;61796;48.808;8.194;2022-07-11T05:36:04;23.10;63.00
47418;DHT22;61796;48.808;8.194;2022-07-11T05:37:46;23.10;63.10
47418;DHT22;61796;48.808;8.194;2022-07-11T05:39:28;23.10;63.30
47418;DHT22;61796;48.808;8.194;2022-07-11T05:41:09;23.10;63.00
47418;DHT22;61796;48.808;8.194;2022-07-11T05:42:51;23.10;63.70
47418;DHT22;61796;48.808;8.194;2022-07-11T05:44:34;23.10;63.70
47418;DHT22;61796;48.808;8.194;2022-07-11T05:46:16;23.10;63.90
47418;DHT22;61796;48.808;8.194;2022-07-11T05:47:58;23.10;64.00
47418;DHT22;61796;48.808;8.194;2022-07-11T05:49:40;23.10;64.10
47418;DHT22;61796;48.808;8.194;2022-07-11T05:51:21;23.10;63.70
47418;DHT22;61796;48.808;8.194;2022-07-11T05:53:03;23.10;64.00
47418;DHT22;61796;48.808;8.194;2022-07-11T05:56:27;23.10;64.10
47418;DHT22;61796;48.808;8.194;2022-07-11T05:58:09;23.10;64.20
47418;DHT22;61796;48.808;8.194;2022-07-11T05:59:52;23.10;64.80
47418;DHT22;61796;48.808;8.194;2022-07-11T06:01:34;23.10;64.40
47418;DHT22;61796;48.808;8.194;2022-07-11T06:03:17;23.10;65.10
47418;DHT22;61796;48.808;8.194;2022-07-11T06:04:59;23.10;65.10
47418;DHT22;61796;48.808;8.194;2022-07-11T06:06:41;23.10;65.20
47418;DHT22;61796;48.808;8.194;2022-07-11T06:08:23;23.10;65.30
47418;DHT22;61796;48.808;8.194;2022-07-11T06:10:05;23.10;65.40
47418;DHT22;61796;48.808;8.194;2022-07-11T06:11:47;23.10;64.90
47418;DHT22;61796;48.808;8.194;2022-07-11T06:13:29;23.20;65.60
47418;DHT22;61796;48.808;8.194;2022-07-11T06:15:13;23.20;65.60
47418;DHT22;61796;48.808;8.194;2022-07-11T06:16:55;23.20;65.80
47418;DHT22;61796;48.808;8.194;2022-07-11T06:18:37;23.20;65.70
47418;DHT22;61796;48.808;8.194;2022-07-11T06:20:19;23.20;65.30
47418;DHT22;61796;48.808;8.194;2022-07-11T06:22:01;23.20;65.80
47418;DHT22;61796;48.808;8.194;2022-07-11T06:23:43;23.20;65.90
47418;DHT22;61796;48.808;8.194;2022-07-11T06:25:26;23.20;65.90
47418;DHT22;61796;48.808;8.194;2022-07-11T06:27:07;23.20;66.10
47418;DHT22;61796;48.808;8.194;2022-07-11T06:28:49;23.20;66.10
47418;DHT22;61796;48.808;8.194;2022-07-11T06:30:32;23.20;65.70
47418;DHT22;61796;48.808;8.194;2022-07-11T06:32:14;23.20;66.30
47418;DHT22;61796;48.808;8.194;2022-07-11T06:33:56;23.20;66.30
47418;DHT22;61796;48.808;8.194;2022-07-11T06:35:38;23.20;65.80
47418;DHT22;61796;48.808;8.194;2022-07-11T06:37:20;23.20;66.40
47418;DHT22;61796;48.808;8.194;2022-07-11T06:39:02;23.20;66.40
47418;DHT22;61796;48.808;8.194;2022-07-11T06:40:44;23.30;66.00
47418;DHT22;61796;48.808;8.194;2022-07-11T06:42:26;23.30;66.60
47418;DHT22;61796;48.808;8.194;2022-07-11T06:44:07;23.30;66.60
47418;DHT22;61796;48.808;8.194;2022-07-11T06:45:51;23.30;66.60
47418;DHT22;61796;48.808;8.194;2022-07-11T06:47:33;23.30;66.70
47418;DHT22;61796;48.808;8.194;2022-07-11T06:49:14;23.30;66.70
47418;DHT22;61796;48.808;8.194;2022-07-11T06:50:56;23.30;66.20
47418;DHT22;61796;48.808;8.194;2022-07-11T06:52:46;23.30;66.80
47418;DHT22;61796;48.808;8.194;2022-07-11T06:54:27;23.40;66.90
47418;DHT22;61796;48.808;8.194;2022-07-11T06:56:09;23.30;66.80
47418;DHT22;61796;48.808;8.194;2022-07-11T06:57:51;23.30;66.90
47418;DHT22;61796;48.808;8.194;2022-07-11T06:59:53;23.40;66.40
47418;DHT22;61796;48.808;8.194;2022-07-11T07:01:36;23.40;66.40
47418;DHT22;61796;48.808;8.194;2022-07-11T07:03:18;23.40;67.00
47418;DHT22;61796;48.808;8.194;2022-07-11T07:05:01;23.40;67.00
47418;DHT22;61796;48.808;8.194;2022-07-11T07:06:43;23.40;67.10
47418;DHT22;61796;48.808;8.194;2022-07-11T07:08:26;23.40;67.20
47418;DHT22;61796;48.808;8.194;2022-07-11T07:10:09;23.40;67.10
47418;DHT22;61796;48.808;8.194;2022-07-11T07:11:51;23.40;66.60
47418;DHT22;61796;48.808;8.194;2022-07-11T07:13:32;23.40;67.30
47418;DHT22;61796;48.808;8.194;2022-07-11T07:15:14;23.40;67.30
47418;DHT22;61796;48.808;8.194;2022-07-11T07:16:58;23.40;67.30
47418;DHT22;61796;48.808;8.194;2022-07-11T07:18:39;23.40;67.30
47418;DHT22;61796;48.808;8.194;2022-07-11T07:20:22;23.40;66.90
47418;DHT22;61796;48.808;8.194;2022-07-11T07:22:04;23.40;67.50
47418;DHT22;61796;48.808;8.194;2022-07-11T07:23:45;23.40;67.40
47418;DHT22;61796;48.808;8.194;2022-07-11T07:25:27;23.40;67.50
47418;DHT22;61796;48.808;8.194;2022-07-11T07:27:09;23.40;67.40
47418;DHT22;61796;48.808;8.194;2022-07-11T07:28:51;23.40;67.50
47418;DHT22;61796;48.808;8.194;2022-07-11T07:30:33;23.40;67.00
47418;DHT22;61796;48.808;8.194;2022-07-11T07:32:16;23.40;67.70
47418;DHT22;61796;48.808;8.194;2022-07-11T07:33:58;23.40;67.40
47418;DHT22;61796;48.808;8.194;2022-07-11T07:35:40;23.40;67.80
47418;DHT22;61796;48.808;8.194;2022-07-11T07:37:22;23.40;67.00
47418;DHT22;61796;48.808;8.194;2022-07-11T07:39:03;23.40;66.90
47418;DHT22;61796;48.808;8.194;2022-07-11T07:40:45;23.50;66.10
47418;DHT22;61796;48.808;8.194;2022-07-11T07:42:27;23.50;66.80
47418;DHT22;61796;48.808;8.194;2022-07-11T07:44:09;23.50;66.60
47418;DHT22;61796;48.808;8.194;2022-07-11T07:45:51;23.50;67.00
47418;DHT22;61796;48.808;8.194;2022-07-11T07:47:34;23.50;67.70
47418;DHT22;61796;48.808;8.194;2022-07-11T07:49:16;23.50;66.30
47418;DHT22;61796;48.808;8.194;2022-07-11T07:50:57;23.50;65.40
47418;DHT22;61796;48.808;8.194;2022-07-11T07:52:39;23.50;66.40
47418;DHT22;61796;48.808;8.194;2022-07-11T07:54:21;23.50;65.30
47418;DHT22;61796;48.808;8.194;2022-07-11T07:56:04;23.60;65.70
47418;DHT22;61796;48.808;8.194;2022-07-11T07:57:46;23.60;65.90
47418;DHT22;61796;48.808;8.194;2022-07-11T07:59:27;23.60;65.30
47418;DHT22;61796;48.808;8.194;2022-07-11T08:01:09;23.60;64.40
47418;DHT22;61796;48.808;8.194;2022-07-11T08:02:52;23.60;65.00
47418;DHT22;61796;48.808;8.194;2022-07-11T08:04:34;23.60;66.40
47418;DHT22;61796;48.808;8.194;2022-07-11T08:06:16;23.70;65.60
47418;DHT22;61796;48.808;8.194;2022-07-11T08:07:58;23.70;65.90
47418;DHT22;61796;48.808;8.194;2022-07-11T08:09:40;23.70;65.40
47418;DHT22;61796;48.808;8.194;2022-07-11T08:11:22;23.70;65.30
47418;DHT22;61796;48.808;8.194;2022-07-11T08:13:13;23.70;65.70
47418;DHT22;61796;48.808;8.194;2022-07-11T08:14:54;23.70;65.90
47418;DHT22;61796;48.808;8.194;2022-07-11T08:16:36;23.80;65.20
47418;DHT22;61796;48.808;8.194;2022-07-11T08:18:20;23.70;64.70
47418;DHT22;61796;48.808;8.194;2022-07-11T08:20:02;23.70;65.20
47418;DHT22;61796;48.808;8.194;2022-07-11T08:21:44;23.70;64.10
47418;DHT22;61796;48.808;8.194;2022-07-11T08:23:26;23.80;64.40
47418;DHT22;61796;48.808;8.194;2022-07-11T08:25:08;23.70;65.00
47418;DHT22;61796;48.808;8.194;2022-07-11T08:26:49;23.80;64.80
47418;DHT22;61796;48.808;8.194;2022-07-11T08:28:31;23.70;65.10
47418;DHT22;61796;48.808;8.194;2022-07-11T08:30:13;23.80;64.70
47418;DHT22;61796;48.808;8.194;2022-07-11T08:31:55;23.70;65.10
47418;DHT22;61796;48.808;8.194;2022-07-11T08:33:38;23.70;65.80
47418;DHT22;61796;48.808;8.194;2022-07-11T08:35:20;23.70;65.10
47418;DHT22;61796;48.808;8.194;2022-07-11T08:37:02;23.80;65.20
47418;DHT22;61796;48.808;8.194;2022-07-11T08:38:44;23.80;65.30
47418;DHT22;61796;48.808;8.194;2022-07-11T08:40:26;23.70;64.70
47418;DHT22;61796;48.808;8.194;2022-07-11T08:42:08;23.70;65.30
47418;DHT22;61796;48.808;8.194;2022-07-11T08:43:50;23.80;65.40
47418;DHT22;61796;48.808;8.194;2022-07-11T08:45:32;23.80;65.40
47418;DHT22;61796;48.808;8.194;2022-07-11T08:47:14;23.80;65.40
47418;DHT22;61796;48.808;8.194;2022-07-11T08:48:59;23.80;65.40
47418;DHT22;61796;48.808;8.194;2022-07-11T08:50:43;23.80;64.80
47418;DHT22;61796;48.808;8.194;2022-07-11T08:52:26;23.80;65.40
47418;DHT22;61796;48.808;8.194;2022-07-11T08:54:10;23.80;65.40
47418;DHT22;61796;48.808;8.194;2022-07-11T08:55:52;23.80;65.30
47418;DHT22;61796;48.808;8.194;2022-07-11T08:57:35;23.80;65.30
47418;DHT22;61796;48.808;8.194;2022-07-11T08:59:16;23.80;65.30
47418;DHT22;61796;48.808;8.194;2022-07-11T09:00:59;23.80;64.70
47418;DHT22;61796;48.808;8.194;2022-07-11T09:02:42;23.80;65.20
47418;DHT22;61796;48.808;8.194;2022-07-11T09:04:26;23.80;64.50
47418;DHT22;61796;48.808;8.194;2022-07-11T09:06:08;23.80;64.00
47418;DHT22;61796;48.808;8.194;2022-07-11T09:07:50;23.80;64.30
47418;DHT22;61796;48.808;8.194;2022-07-11T09:09:32;23.80;64.30
47418;DHT22;61796;48.808;8.194;2022-07-11T09:11:14;23.80;64.00
47418;DHT22;61796;48.808;8.194;2022-07-11T09:13:00;23.80;64.80
47418;DHT22;61796;48.808;8.194;2022-07-11T09:14:46;23.80;64.40
47418;DHT22;61796;48.808;8.194;2022-07-11T09:16:28;23.90;64.40
47418;DHT22;61796;48.808;8.194;2022-07-11T09:18:30;23.80;64.40
47418;DHT22;61796;48.808;8.194;2022-07-11T09:20:14;23.90;63.80
47418;DHT22;61796;48.808;8.194;2022-07-11T09:22:01;23.90;64.40
47418;DHT22;61796;48.808;8.194;2022-07-11T09:23:44;23.90;64.40
47418;DHT22;61796;48.808;8.194;2022-07-11T09:25:26;23.90;64.20
47418;DHT22;61796;48.808;8.194;2022-07-11T09:27:11;23.90;64.20
47418;DHT22;61796;48.808;8.194;2022-07-11T09:29:00;23.90;64.40
47418;DHT22;61796;48.808;8.194;2022-07-11T09:30:42;23.90;63.70
47418;DHT22;61796;48.808;8.194;2022-07-11T09:32:25;23.90;64.30
47418;DHT22;61796;48.808;8.194;2022-07-11T09:34:08;23.90;64.30
47418;DHT22;61796;48.808;8.194;2022-07-11T09:35:54;23.90;64.30
47418;DHT22;61796;48.808;8.194;2022-07-11T09:37:41;23.90;64.10
47418;DHT22;61796;48.808;8.194;2022-07-11T09:39:25;23.90;64.20
47418;DHT22;61796;48.808;8.194;2022-07-11T09:41:10;24.00;63.60
47418;DHT22;61796;48.808;8.194;2022-07-11T09:42:53;23.90;64.10
47418;DHT22;61796;48.808;8.194;2022-07-11T09:44:35;24.00;64.00
47418;DHT22;61796;48.808;8.194;2022-07-11T09:46:19;24.00;64.10
47418;DHT22;61796;48.808;8.194;2022-07-11T09:48:08;24.00;64.00
47418;DHT22;61796;48.808;8.194;2022-07-11T09:49:51;24.00;63.90
47418;DHT22;61796;48.808;8.194;2022-07-11T09:51:35;24.00;63.60
47418;DHT22;61796;48.808;8.194;2022-07-11T09:53:17;24.00;63.80
47418;DHT22;61796;48.808;8.194;2022-07-11T09:55:00;24.00;63.70
47418;DHT22;61796;48.808;8.194;2022-07-11T09:56:44;24.00;63.60
47418;DHT22;61796;48.808;8.194;2022-07-11T09:58:41;24.00;63.60
47418;DHT22;61796;48.808;8.194;2022-07-11T10:00:23;24.10;62.50
47418;DHT22;61796;48.808;8.194;2022-07-11T10:02:05;24.00;63.10
47418;DHT22;61796;48.808;8.194;2022-07-11T10:03:48;24.00;63.10
47418;DHT22;61796;48.808;8.194;2022-07-11T10:05:38;24.10;63.20
47418;DHT22;61796;48.808;8.194;2022-07-11T10:07:22;24.10;63.40
47418;DHT22;61796;48.808;8.194;2022-07-11T10:09:04;24.10;63.30
47418;DHT22;61796;48.808;8.194;2022-07-11T10:12:31;24.10;62.80
47418;DHT22;61796;48.808;8.194;2022-07-11T10:14:13;24.10;63.40
47418;DHT22;61796;48.808;8.194;2022-07-11T10:15:55;24.10;62.60
47418;DHT22;61796;48.808;8.194;2022-07-11T10:17:45;24.10;63.10
47418;DHT22;61796;48.808;8.194;2022-07-11T10:19:40;24.10;63.20
47418;DHT22;61796;48.808;8.194;2022-07-11T10:21:44;24.10;62.60
47418;DHT22;61796;48.808;8.194;2022-07-11T10:23:40;24.10;63.10
47418;DHT22;61796;48.808;8.194;2022-07-11T10:25:29;24.10;63.00
47418;DHT22;61796;48.808;8.194;2022-07-11T10:27:21;24.10;62.70
47418;DHT22;61796;48.808;8.194;2022-07-11T10:29:09;24.10;62.60
47418;DHT22;61796;48.808;8.194;2022-07-11T10:30:53;24.10;62.20
47418;DHT22;61796;48.808;8.194;2022-07-11T10:32:57;24.20;62.80
47418;DHT22;61796;48.808;8.194;2022-07-11T10:34:39;24.20;62.90
47418;DHT22;61796;48.808;8.194;2022-07-11T10:36:25;24.50;63.10
47418;DHT22;61796;48.808;8.194;2022-07-11T10:38:07;23.60;62.60
47418;DHT22;61796;48.808;8.194;2022-07-11T10:39:58;24.20;62.90
47418;DHT22;61796;48.808;8.194;2022-07-11T10:41:40;24.20;62.20
47418;DHT22;61796;48.808;8.194;2022-07-11T10:43:36;24.20;62.90
47418;DHT22;61796;48.808;8.194;2022-07-11T10:45:18;24.20;62.80
47418;DHT22;61796;48.808;8.194;2022-07-11T10:47:00;24.20;62.50
47418;DHT22;61796;48.808;8.194;2022-07-11T10:48:56;24.20;62.40
47418;DHT22;61796;48.808;8.194;2022-07-11T10:50:40;24.20;62.00
47418;DHT22;61796;48.808;8.194;2022-07-11T10:52:22;24.20;62.60
47418;DHT22;61796;48.808;8.194;2022-07-11T10:54:12;24.20;62.70
47418;DHT22;61796;48.808;8.194;2022-07-11T10:56:07;24.20;62.20